createdAt,value
2023-04-21T00:00:09.830Z,2
2023-04-21T00:01:17.560Z,2.4
2023-04-21T00:02:27.293Z,1.8
2023-04-21T00:03:35.117Z,2.1
2023-04-21T00:04:43.767Z,2.1
2023-04-21T00:05:53.477Z,1.9
2023-04-21T00:07:02.098Z,2.3
2023-04-21T00:08:11.847Z,2.1
2023-04-21T00:09:21.725Z,2.9
2023-04-21T00:10:29.252Z,2.2
2023-04-21T00:11:38.971Z,2.2
2023-04-21T00:12:46.664Z,2
2023-04-21T00:13:55.361Z,3
2023-04-21T00:15:05.097Z,2.3
2023-04-21T00:16:13.824Z,2.1
2023-04-21T00:17:23.610Z,2.4
2023-04-21T00:18:32.225Z,2.2
2023-04-21T00:19:40.940Z,2.3
2023-04-21T00:20:49.653Z,2
2023-04-21T00:21:58.370Z,2.2
2023-04-21T00:23:07.077Z,2.1
2023-04-21T00:24:15.832Z,1.9
2023-04-21T00:25:23.606Z,2.6
2023-04-21T00:26:33.296Z,2.2
2023-04-21T00:27:42.012Z,2.6
2023-04-21T00:28:50.767Z,2.4
2023-04-21T00:30:00.505Z,2.5
2023-04-21T00:31:09.221Z,2.5
2023-04-21T00:32:17.992Z,2.6
2023-04-21T00:33:26.695Z,2.1
2023-04-21T00:34:34.436Z,2
2023-04-21T00:35:44.170Z,3.2
2023-04-21T00:36:52.875Z,2.1
2023-04-21T00:38:01.598Z,2.3
2023-04-21T00:39:11.319Z,2.3
2023-04-21T00:40:20.090Z,2.5
2023-04-21T00:41:28.810Z,2.5
2023-04-21T00:42:38.547Z,2
2023-04-21T00:43:47.283Z,2.8
2023-04-21T00:44:56.949Z,1.8
2023-04-21T00:46:05.656Z,2.2
2023-04-21T00:47:14.460Z,2.1
2023-04-21T00:48:24.182Z,2.5
2023-04-21T00:49:31.894Z,2
2023-04-21T00:50:41.122Z,2.4
2023-04-21T00:51:50.801Z,2.4
2023-04-21T00:52:59.553Z,2
2023-04-21T00:54:09.281Z,3
2023-04-21T00:55:19.040Z,1.9
2023-04-21T00:56:26.721Z,2.6
2023-04-21T00:57:36.458Z,2.2
2023-04-21T00:58:45.182Z,2.3
2023-04-21T00:59:53.933Z,2.3
2023-04-21T01:01:03.792Z,2
2023-04-21T01:02:12.620Z,2.5
2023-04-21T01:03:22.518Z,2.5
2023-04-21T01:04:32.033Z,2.4
2023-04-21T01:05:39.757Z,2.5
2023-04-21T01:06:51.270Z,2.9
2023-04-21T01:08:02.184Z,2.6
2023-04-21T01:09:10.552Z,2.5
2023-04-21T01:10:20.840Z,2.5
2023-04-21T01:11:28.533Z,3.2
2023-04-21T01:12:38.212Z,2.2
2023-04-21T01:13:47.903Z,2.5
2023-04-21T01:14:55.602Z,2.3
2023-04-21T01:16:04.372Z,2.2
2023-04-21T01:17:12.035Z,2.9
2023-04-21T01:18:20.710Z,2.6
2023-04-21T01:19:30.447Z,2.8
2023-04-21T01:20:38.165Z,2.6
2023-04-21T01:21:47.866Z,2.7
2023-04-21T01:22:57.562Z,2.6
2023-04-21T01:24:06.237Z,2.6
2023-04-21T01:25:15.960Z,2.9
2023-04-21T01:26:24.671Z,2.4
2023-04-21T01:27:33.384Z,2.6
2023-04-21T01:28:43.088Z,2.7
2023-04-21T01:29:51.788Z,2.7
2023-04-21T01:31:01.531Z,2.2
2023-04-21T01:32:10.297Z,2.8
2023-04-21T01:33:18.976Z,2.7
2023-04-21T01:34:28.653Z,2.5
2023-04-21T01:35:38.381Z,3
2023-04-21T01:36:47.119Z,2.9
2023-04-21T01:37:56.786Z,2.7
2023-04-21T01:39:05.518Z,2.5
2023-04-21T01:40:13.224Z,2.8
2023-04-21T01:41:23.878Z,2.6
2023-04-21T01:42:32.577Z,2
2023-04-21T01:43:41.271Z,2.5
2023-04-21T01:44:50.978Z,2.5
2023-04-21T01:45:59.714Z,2.5
2023-04-21T01:47:09.425Z,3.1
2023-04-21T01:48:18.146Z,2.5
2023-04-21T01:49:26.778Z,2.3
2023-04-21T01:50:36.502Z,2.3
2023-04-21T01:51:44.320Z,2.9
2023-04-21T01:52:53.951Z,2.4
2023-04-21T01:54:03.663Z,2.9
2023-04-21T01:55:12.510Z,2.5
2023-04-21T01:56:22.183Z,3.4
2023-04-21T01:57:30.891Z,2.9
2023-04-21T01:58:38.595Z,2.9
2023-04-21T01:59:48.291Z,2.3
2023-04-21T02:00:56.008Z,2.8
2023-04-21T02:02:04.862Z,2.9
2023-04-21T02:03:14.509Z,2.3
2023-04-21T02:04:23.255Z,2.4
2023-04-21T02:05:32.840Z,2.9
2023-04-21T02:06:41.628Z,2.5
2023-04-21T02:07:50.359Z,2.4
2023-04-21T02:08:59.954Z,2.9
2023-04-21T02:10:08.845Z,2.7
2023-04-21T02:11:17.531Z,2.8
2023-04-21T02:12:27.427Z,2.9
2023-04-21T02:13:37.155Z,2.6
2023-04-21T02:14:47.025Z,3
2023-04-21T02:16:06.075Z,2.8
2023-04-21T02:17:04.458Z,3
2023-04-21T02:18:14.205Z,2.7
2023-04-21T02:19:21.996Z,3
2023-04-21T02:20:30.688Z,2.8
2023-04-21T02:21:40.354Z,2.7
2023-04-21T02:22:49.049Z,2.6
2023-04-21T02:23:58.784Z,2.5
2023-04-21T02:25:07.577Z,2.5
2023-04-21T02:26:15.276Z,2.3
2023-04-21T02:27:24.984Z,2.1
2023-04-21T02:28:32.686Z,2.9
2023-04-21T02:29:41.399Z,2.4
2023-04-21T02:30:51.097Z,2.5
2023-04-21T02:32:10.595Z,2.6
2023-04-21T02:33:11.459Z,3.3
2023-04-21T02:34:20.133Z,2.4
2023-04-21T02:35:28.874Z,2.5
2023-04-21T02:36:37.584Z,2.4
2023-04-21T02:37:47.321Z,2.7
2023-04-21T02:38:56.040Z,2.4
2023-04-21T02:40:05.745Z,2.3
2023-04-21T02:41:13.459Z,2.4
2023-04-21T02:42:23.197Z,2.8
2023-04-21T02:43:31.877Z,2.9
2023-04-21T02:44:40.574Z,2.3
2023-04-21T02:45:50.285Z,2.4
2023-04-21T02:46:58.007Z,2.1
2023-04-21T02:48:06.748Z,2.2
2023-04-21T02:49:15.398Z,2.2
2023-04-21T02:50:23.113Z,2.5
2023-04-21T02:51:32.816Z,2.3
2023-04-21T02:52:42.508Z,1.9
2023-04-21T02:53:51.204Z,2.8
2023-04-21T02:55:01.010Z,2.7
2023-04-21T02:56:08.708Z,2.7
2023-04-21T02:57:18.429Z,2.9
2023-04-21T02:58:28.165Z,2.2
2023-04-21T02:59:36.839Z,2
2023-04-21T03:00:46.557Z,2.5
2023-04-21T03:01:55.221Z,2.3
2023-04-21T03:03:05.170Z,1.7
2023-04-21T03:04:14.701Z,2.2
2023-04-21T03:05:22.407Z,2.1
2023-04-21T03:06:31.205Z,1.9
2023-04-21T03:07:40.878Z,2.3
2023-04-21T03:08:48.585Z,1.9
2023-04-21T03:09:58.313Z,2.4
2023-04-21T03:11:07.082Z,2
2023-04-21T03:12:15.879Z,2.2
2023-04-21T03:13:25.540Z,1.6
2023-04-21T03:14:35.290Z,2.2
2023-04-21T03:15:43.990Z,1.7
2023-04-21T03:16:53.743Z,2
2023-04-21T03:18:03.431Z,2.2
2023-04-21T03:19:13.084Z,1.8
2023-04-21T03:20:23.773Z,1.7
2023-04-21T03:21:32.960Z,2.2
2023-04-21T03:22:42.678Z,2.5
2023-04-21T03:23:51.369Z,2.6
2023-04-21T03:25:01.107Z,2.1
2023-04-21T03:26:08.842Z,2.3
2023-04-21T03:27:18.500Z,2.5
2023-04-21T03:28:27.224Z,2.3
2023-04-21T03:29:34.869Z,2.2
2023-04-21T03:30:44.613Z,2.3
2023-04-21T03:31:53.360Z,2.1
2023-04-21T03:33:03.041Z,1.9
2023-04-21T03:34:12.704Z,1.9
2023-04-21T03:35:21.386Z,2.1
2023-04-21T03:36:31.143Z,2
2023-04-21T03:37:39.815Z,2
2023-04-21T03:38:48.514Z,1.6
2023-04-21T03:39:58.187Z,2.4
2023-04-21T03:41:06.914Z,2.2
2023-04-21T03:42:16.644Z,2.1
2023-04-21T03:43:26.338Z,2
2023-04-21T03:44:34.040Z,1.9
2023-04-21T03:45:43.703Z,2.4
2023-04-21T03:46:52.395Z,2.2
2023-04-21T03:48:00.163Z,2.1
2023-04-21T03:49:09.786Z,2.2
2023-04-21T03:50:18.498Z,2.5
2023-04-21T03:51:28.252Z,1.9
2023-04-21T03:52:37.924Z,2.4
2023-04-21T03:53:46.605Z,2.5
2023-04-21T03:54:56.296Z,2.5
2023-04-21T03:56:05.022Z,2.3
2023-04-21T03:57:30.796Z,2.5
2023-04-21T03:58:40.471Z,2.4
2023-04-21T03:59:49.200Z,1.9
2023-04-21T04:00:57.888Z,2.2
2023-04-21T04:02:07.698Z,1.9
2023-04-21T04:03:15.468Z,1.9
2023-04-21T04:04:25.275Z,1.7
2023-04-21T04:05:33.901Z,2.2
2023-04-21T04:06:41.532Z,1.7
2023-04-21T04:07:50.243Z,1.8
2023-04-21T04:08:59.967Z,1.7
2023-04-21T04:10:07.648Z,2
2023-04-21T04:11:17.353Z,1.9
2023-04-21T04:12:26.438Z,2.1
2023-04-21T04:13:35.138Z,1.6
2023-04-21T04:14:44.851Z,2
2023-04-21T04:15:52.550Z,1.9
2023-04-21T04:17:01.246Z,1.6
2023-04-21T04:18:10.912Z,2
2023-04-21T04:19:20.045Z,1.6
2023-04-21T04:20:29.566Z,2.2
2023-04-21T04:21:39.265Z,1.8
2023-04-21T04:22:46.897Z,1.7
2023-04-21T04:23:56.562Z,1.7
2023-04-21T04:25:05.241Z,1.6
2023-04-21T04:26:13.890Z,1.5
2023-04-21T04:27:23.562Z,1.5
2023-04-21T04:28:31.223Z,1.8
2023-04-21T04:29:39.869Z,1.7
2023-04-21T04:30:48.529Z,1.9
2023-04-21T04:31:57.232Z,1.7
2023-04-21T04:33:06.925Z,1.6
2023-04-21T04:34:14.554Z,1.9
2023-04-21T04:35:24.232Z,1.4
2023-04-21T04:36:32.904Z,1.5
2023-04-21T04:37:42.594Z,1.8
2023-04-21T04:38:52.257Z,1.6
2023-04-21T04:40:00.922Z,1.3
2023-04-21T04:41:09.627Z,1.4
2023-04-21T04:42:19.330Z,1.7
2023-04-21T04:43:28.997Z,1.6
2023-04-21T04:44:37.656Z,1.4
2023-04-21T04:45:47.348Z,1.8
2023-04-21T04:46:57.093Z,2
2023-04-21T04:48:06.764Z,1
2023-04-21T04:49:15.434Z,1.7
2023-04-21T04:50:24.129Z,1.7
2023-04-21T04:51:33.904Z,1.6
2023-04-21T04:52:41.553Z,1.4
2023-04-21T04:53:50.234Z,1.2
2023-04-21T04:54:58.932Z,2.1
2023-04-21T04:56:06.631Z,2
2023-04-21T04:57:16.353Z,2
2023-04-21T04:58:26.032Z,2.3
2023-04-21T04:59:34.748Z,2
2023-04-21T05:00:44.442Z,1.7
2023-04-21T05:01:51.150Z,2.3
2023-04-21T05:03:00.940Z,2
2023-04-21T05:04:10.813Z,1.9
2023-04-21T05:05:18.272Z,2.3
2023-04-21T05:06:27.921Z,2.1
2023-04-21T05:07:36.648Z,1.8
2023-04-21T05:08:44.350Z,2.2
2023-04-21T05:09:54.064Z,1.9
2023-04-21T05:11:01.771Z,2.1
2023-04-21T05:12:10.487Z,2.7
2023-04-21T05:13:20.176Z,2.2
2023-04-21T05:14:27.853Z,2.3
2023-04-21T05:15:37.535Z,2.3
2023-04-21T05:16:46.278Z,2.2
2023-04-21T05:17:55.007Z,2.1
2023-04-21T05:19:04.634Z,2.1
2023-04-21T05:20:12.326Z,2
2023-04-21T05:21:20.995Z,1.6
2023-04-21T05:22:30.737Z,2
2023-04-21T05:23:38.488Z,2.3
2023-04-21T05:24:48.179Z,2.4
2023-04-21T05:25:57.877Z,2.3
2023-04-21T05:27:06.054Z,2.3
2023-04-21T05:28:15.717Z,2
2023-04-21T05:29:24.420Z,2.4
2023-04-21T05:30:32.076Z,2.2
2023-04-21T05:31:41.786Z,2.2
2023-04-21T05:32:51.502Z,2.4
2023-04-21T05:34:01.140Z,1.5
2023-04-21T05:35:10.790Z,1.5
2023-04-21T05:36:19.634Z,1.9
2023-04-21T05:37:29.182Z,3
2023-04-21T05:38:36.858Z,2.4
2023-04-21T05:39:46.553Z,1.8
2023-04-21T05:40:56.279Z,2
2023-04-21T05:42:06.006Z,1.8
2023-04-21T05:43:15.714Z,1.7
2023-04-21T05:44:24.400Z,1.6
2023-04-21T05:45:32.083Z,2.4
2023-04-21T05:46:42.010Z,2.1
2023-04-21T05:47:50.737Z,2.4
2023-04-21T05:49:00.306Z,1.6
2023-04-21T05:50:09.969Z,2.4
2023-04-21T05:51:18.690Z,2
2023-04-21T05:52:28.404Z,2
2023-04-21T05:53:37.050Z,2.1
2023-04-21T05:54:45.751Z,1.5
2023-04-21T05:55:54.441Z,2
2023-04-21T05:57:02.093Z,1.4
2023-04-21T05:58:11.790Z,1.5
2023-04-21T05:59:21.494Z,2
2023-04-21T06:00:31.170Z,2.3
2023-04-21T06:01:40.861Z,1.5
2023-04-21T06:02:49.622Z,1.8
2023-04-21T06:03:58.459Z,1.9
2023-04-21T06:05:08.116Z,2
2023-04-21T06:06:17.608Z,1.9
2023-04-21T06:07:26.310Z,2
2023-04-21T06:08:36.089Z,1.7
2023-04-21T06:09:44.775Z,1.9
2023-04-21T06:10:52.487Z,1.8
2023-04-21T06:12:02.195Z,1.9
2023-04-21T06:13:09.855Z,2.2
2023-04-21T06:14:19.659Z,1.7
2023-04-21T06:15:29.279Z,1.9
2023-04-21T06:16:40.034Z,1.7
2023-04-21T06:17:49.716Z,1.9
2023-04-21T06:18:59.403Z,2.2
2023-04-21T06:20:08.077Z,1.5
2023-04-21T06:21:17.753Z,1.5
2023-04-21T06:22:25.547Z,1.5
2023-04-21T06:23:35.211Z,1.4
2023-04-21T06:24:44.913Z,1.8
2023-04-21T06:25:53.593Z,1.5
2023-04-21T06:27:02.374Z,1.6
2023-04-21T06:28:10.003Z,1.2
2023-04-21T06:29:17.660Z,1.3
2023-04-21T06:30:27.310Z,1.2
2023-04-21T06:31:36.005Z,1.4
2023-04-21T06:32:44.700Z,1.2
2023-04-21T06:33:54.329Z,1.6
2023-04-21T06:35:02.033Z,1.2
2023-04-21T06:36:11.730Z,1.5
2023-04-21T06:37:20.434Z,1.3
2023-04-21T06:38:29.097Z,1.3
2023-04-21T06:39:38.769Z,0.9
2023-04-21T06:40:46.459Z,1.2
2023-04-21T06:41:55.118Z,1.3
2023-04-21T06:43:04.842Z,1.1
2023-04-21T06:44:12.513Z,1.1
2023-04-21T06:45:22.200Z,1.6
2023-04-21T06:46:30.892Z,2
2023-04-21T06:47:38.665Z,1.8
2023-04-21T06:48:48.237Z,2.3
2023-04-21T06:49:56.892Z,1.7
2023-04-21T06:51:05.563Z,1.4
2023-04-21T06:52:15.263Z,1.6
2023-04-21T06:53:22.953Z,1.5
2023-04-21T06:54:32.625Z,1.5
2023-04-21T06:55:41.301Z,1.1
2023-04-21T06:56:48.975Z,1.2
2023-04-21T06:57:58.662Z,0.9
2023-04-21T06:59:07.330Z,1.3
2023-04-21T07:00:16.997Z,1.5
2023-04-21T07:01:26.707Z,1.2
2023-04-21T07:02:36.489Z,1.2
2023-04-21T07:03:46.137Z,1.3
2023-04-21T07:04:54.773Z,0.8
2023-04-21T07:06:03.416Z,1.8
2023-04-21T07:07:13.100Z,1.3
2023-04-21T07:08:20.803Z,1.3
2023-04-21T07:09:29.482Z,0.9
2023-04-21T07:10:39.210Z,0.8
2023-04-21T07:11:46.902Z,1.5
2023-04-21T07:12:57.080Z,0.9
2023-04-21T07:14:05.727Z,1.1
2023-04-21T07:15:13.406Z,0.9
2023-04-21T07:16:23.124Z,0.9
2023-04-21T07:17:30.886Z,1.2
2023-04-21T07:18:39.589Z,0.8
2023-04-21T07:19:49.290Z,1.1
2023-04-21T07:20:56.963Z,1.2
2023-04-21T07:22:06.650Z,0.9
2023-04-21T07:23:16.346Z,0.7
2023-04-21T07:24:24.019Z,0.9
2023-04-21T07:25:33.717Z,1.1
2023-04-21T07:26:41.381Z,0.9
2023-04-21T07:27:51.074Z,0.9
2023-04-21T07:29:00.779Z,0.5
2023-04-21T07:30:08.419Z,1.1
2023-04-21T07:31:18.097Z,1.1
2023-04-21T07:32:26.861Z,1.1
2023-04-21T07:33:34.523Z,1
2023-04-21T07:34:44.201Z,0.6
2023-04-21T07:35:51.883Z,0.8
2023-04-21T07:37:00.539Z,1
2023-04-21T07:38:10.279Z,0.9
2023-04-21T07:39:19.138Z,0.9
2023-04-21T07:40:28.642Z,0.7
2023-04-21T07:41:38.298Z,0.8
2023-04-21T07:42:45.990Z,0.9
2023-04-21T07:43:55.658Z,1
2023-04-21T07:45:03.360Z,0.8
2023-04-21T07:46:12.021Z,0.8
2023-04-21T07:47:21.715Z,0.6
2023-04-21T07:48:29.399Z,1.3
2023-04-21T07:49:39.104Z,1.2
2023-04-21T07:50:48.763Z,0.8
2023-04-21T07:51:57.449Z,0.9
2023-04-21T07:53:07.142Z,1.1
2023-04-21T07:54:15.858Z,0.7
2023-04-21T07:55:25.646Z,0.8
2023-04-21T07:56:35.304Z,0.7
2023-04-21T07:57:42.981Z,0.6
2023-04-21T07:58:52.648Z,0.6
2023-04-21T08:00:02.331Z,0.6
2023-04-21T08:01:12.040Z,0.8
2023-04-21T08:02:20.814Z,0.8
2023-04-21T08:03:30.653Z,0.5
2023-04-21T08:04:40.301Z,0.7
2023-04-21T08:05:50.095Z,1
2023-04-21T08:06:58.891Z,0.5
2023-04-21T08:08:06.260Z,0.5
2023-04-21T08:09:15.995Z,0.8
2023-04-21T08:10:24.724Z,0.7
2023-04-21T08:11:33.422Z,0.5
2023-04-21T08:12:42.087Z,0.8
2023-04-21T08:13:50.805Z,0.8
2023-04-21T08:15:01.406Z,0.5
2023-04-21T08:16:10.090Z,0.9
2023-04-21T08:17:17.782Z,0.8
2023-04-21T08:18:27.468Z,0.8
2023-04-21T08:19:36.239Z,0.7
2023-04-21T08:20:45.907Z,0.5
2023-04-21T08:21:55.575Z,0.8
2023-04-21T08:23:05.306Z,0.5
2023-04-21T08:24:14.931Z,0.6
2023-04-21T08:25:23.605Z,1.1
2023-04-21T08:26:31.274Z,0.5
2023-04-21T08:27:40.953Z,0.4
2023-04-21T08:28:49.672Z,0.6
2023-04-21T08:29:58.328Z,0.5
2023-04-21T08:31:07.986Z,0.7
2023-04-21T08:32:16.687Z,0.7
2023-04-21T08:33:26.405Z,0.6
2023-04-21T08:34:34.074Z,0.7
2023-04-21T08:35:51.358Z,0.7
2023-04-21T08:36:54.410Z,1.1
2023-04-21T08:38:02.124Z,0.8
2023-04-21T08:39:10.845Z,0.7
2023-04-21T08:40:20.492Z,0.7
2023-04-21T08:41:30.178Z,1
2023-04-21T08:42:38.839Z,0.5
2023-04-21T08:43:48.582Z,0.4
2023-04-21T08:44:57.390Z,0.7
2023-04-21T08:46:07.221Z,0.6
2023-04-21T08:47:14.926Z,0.8
2023-04-21T08:48:24.647Z,0.8
2023-04-21T08:49:34.373Z,0.6
2023-04-21T08:50:42.033Z,0.8
2023-04-21T08:51:50.714Z,0.8
2023-04-21T08:52:58.454Z,0.8
2023-04-21T08:54:06.123Z,0.5
2023-04-21T08:55:15.799Z,0.6
2023-04-21T08:56:23.457Z,0.5
2023-04-21T08:57:33.118Z,0.6
2023-04-21T08:58:42.797Z,0.8
2023-04-21T08:59:51.455Z,0.6
2023-04-21T09:01:01.150Z,0.6
2023-04-21T09:02:09.889Z,0.7
2023-04-21T09:03:25.284Z,0.6
2023-04-21T09:04:30.324Z,0.6
2023-04-21T09:05:42.678Z,0.5
2023-04-21T09:06:48.646Z,0.7
2023-04-21T09:07:58.339Z,0.8
2023-04-21T09:09:08.010Z,0.5
2023-04-21T09:10:17.693Z,0.7
2023-04-21T09:11:27.396Z,0.5
2023-04-21T09:12:36.086Z,0.6
2023-04-21T09:13:45.778Z,0.6
2023-04-21T09:14:55.514Z,0.5
2023-04-21T09:16:08.169Z,0.6
2023-04-21T09:17:14.919Z,0.5
2023-04-21T09:18:22.613Z,0.6
2023-04-21T09:19:32.329Z,0.7
2023-04-21T09:20:42.015Z,0.3
2023-04-21T09:21:49.673Z,0.3
2023-04-21T09:22:59.558Z,0.3
2023-04-21T09:24:07.264Z,0.5
2023-04-21T09:25:15.918Z,0.7
2023-04-21T09:26:25.609Z,0.7
2023-04-21T09:27:35.317Z,0.5
2023-04-21T09:28:45.058Z,0.5
2023-04-21T09:29:53.727Z,0.7
2023-04-21T09:31:02.412Z,0.7
2023-04-21T09:32:12.062Z,0.9
2023-04-21T09:33:29.308Z,0.8
2023-04-21T09:34:31.469Z,1
2023-04-21T09:35:41.146Z,0.6
2023-04-21T09:36:49.899Z,0.7
2023-04-21T09:37:59.561Z,0.7
2023-04-21T09:40:18.891Z,0.7
2023-04-21T09:41:28.519Z,1.1
2023-04-21T09:42:39.768Z,1.2
2023-04-21T09:43:46.889Z,0.7
2023-04-21T09:45:10.839Z,0.7
2023-04-21T09:46:05.292Z,0.6
2023-04-21T09:47:14.940Z,0.8
2023-04-21T09:48:24.650Z,1.3
2023-04-21T09:49:32.346Z,1.2
2023-04-21T09:51:18.062Z,1.1
2023-04-21T09:53:02.426Z,1.1
2023-04-21T09:54:22.410Z,0.9
2023-04-21T09:55:21.731Z,0.8
2023-04-21T09:56:31.418Z,1.1
2023-04-21T09:57:41.076Z,1.5
2023-04-21T09:58:49.755Z,1.4
2023-04-21T09:59:58.505Z,1
2023-04-21T10:01:08.212Z,1
2023-04-21T10:02:15.978Z,0.8
2023-04-21T10:03:25.610Z,1
2023-04-21T10:04:35.540Z,0.7
2023-04-21T10:05:44.917Z,0.9
2023-04-21T10:06:54.598Z,0.8
2023-04-21T10:08:02.255Z,1
2023-04-21T10:09:10.968Z,0.6
2023-04-21T10:10:20.628Z,0.8
2023-04-21T10:11:29.276Z,0.7
2023-04-21T10:12:38.928Z,0.6
2023-04-21T10:13:47.641Z,0.5
2023-04-21T10:14:55.357Z,0.7
2023-04-21T10:16:05.076Z,0.7
2023-04-21T10:17:13.941Z,0.6
2023-04-21T10:18:22.465Z,0.7
2023-04-21T10:19:32.159Z,0.5
2023-04-21T10:20:39.870Z,0.6
2023-04-21T10:21:49.537Z,0.8
2023-04-21T10:22:58.209Z,0.9
2023-04-21T10:24:07.906Z,0.3
2023-04-21T10:25:17.671Z,0.5
2023-04-21T10:26:26.284Z,0.6
2023-04-21T10:27:34.966Z,0.6
2023-04-21T10:28:44.655Z,0.9
2023-04-21T10:29:56.938Z,0.6
2023-04-21T10:31:05.046Z,0.9
2023-04-21T10:32:14.689Z,0.6
2023-04-21T10:33:24.343Z,0.5
2023-04-21T10:34:34.058Z,0.8
2023-04-21T10:35:41.729Z,0.6
2023-04-21T10:36:51.412Z,1
2023-04-21T10:38:01.073Z,0.6
2023-04-21T10:39:08.827Z,0.8
2023-04-21T10:40:18.510Z,0.7
2023-04-21T10:41:27.201Z,0.6
2023-04-21T10:42:35.866Z,0.8
2023-04-21T10:43:46.566Z,0.8
2023-04-21T10:44:53.214Z,0.6
2023-04-21T10:46:01.899Z,0.6
2023-04-21T10:47:11.576Z,0.5
2023-04-21T10:48:20.208Z,0.5
2023-04-21T10:49:29.881Z,0.5
2023-04-21T10:50:39.811Z,0.4
2023-04-21T10:51:47.259Z,0.9
2023-04-21T10:52:57.896Z,0.8
2023-04-21T10:54:05.561Z,0.7
2023-04-21T10:55:14.264Z,0.6
2023-04-21T10:56:23.927Z,0.8
2023-04-21T10:57:31.665Z,0.4
2023-04-21T10:58:40.321Z,0.6
2023-04-21T10:59:48.992Z,0.4
2023-04-21T11:00:56.717Z,0.4
2023-04-21T11:02:06.714Z,0.5
2023-04-21T11:03:16.349Z,0.3
2023-04-21T11:04:26.200Z,1
2023-04-21T11:05:34.662Z,0.5
2023-04-21T11:06:42.348Z,0.7
2023-04-21T11:07:52.020Z,0.8
2023-04-21T11:09:00.825Z,0.9
2023-04-21T11:10:08.508Z,0.6
2023-04-21T11:11:18.159Z,0.5
2023-04-21T11:12:26.828Z,0.6
2023-04-21T11:13:36.582Z,0.7
2023-04-21T11:14:46.238Z,0.9
2023-04-21T11:15:53.917Z,0.8
2023-04-21T11:17:03.646Z,0.6
2023-04-21T11:18:12.373Z,1
2023-04-21T11:19:19.989Z,0.7
2023-04-21T11:20:29.729Z,0.7
2023-04-21T11:21:37.409Z,0.8
2023-04-21T11:22:46.066Z,1
2023-04-21T11:23:55.726Z,0.9
2023-04-21T11:25:04.467Z,1
2023-04-21T11:26:14.156Z,1.1
2023-04-21T11:27:22.818Z,1.5
2023-04-21T11:28:31.510Z,0.7
2023-04-21T11:29:41.250Z,0.9
2023-04-21T11:30:48.921Z,0.8
2023-04-21T11:31:57.641Z,0.7
2023-04-21T11:33:07.312Z,0.9
2023-04-21T11:34:17.103Z,0.4
2023-04-21T11:35:26.711Z,0.7
2023-04-21T11:36:35.393Z,0.7
2023-04-21T11:37:43.075Z,0.8
2023-04-21T11:38:52.750Z,0.8
2023-04-21T11:40:00.585Z,0.7
2023-04-21T11:41:09.149Z,1.2
2023-04-21T11:42:18.827Z,0.8
2023-04-21T11:43:28.525Z,0.6
2023-04-21T11:44:38.208Z,0.9
2023-04-21T11:45:46.929Z,0.5
2023-04-21T11:46:55.568Z,0.3
2023-04-21T11:48:05.288Z,0.3
2023-04-21T11:49:13.944Z,0.3
2023-04-21T11:50:23.661Z,0.3
2023-04-21T11:51:33.361Z,0.6
2023-04-21T11:52:41.021Z,0.3
2023-04-21T11:53:50.746Z,0.4
2023-04-21T11:55:00.452Z,0.3
2023-04-21T11:56:09.109Z,0.3
2023-04-21T11:57:17.777Z,0.6
2023-04-21T11:58:27.505Z,0.4
2023-04-21T11:59:35.167Z,0.3
2023-04-21T12:00:44.883Z,0.7
2023-04-21T12:01:53.566Z,0.6
2023-04-21T12:03:02.309Z,0.4
2023-04-21T12:04:11.962Z,0.5
2023-04-21T12:05:20.590Z,0.4
2023-04-21T12:06:29.246Z,0.5
2023-04-21T12:07:39.888Z,0.5
2023-04-21T12:08:48.548Z,0.3
2023-04-21T12:09:57.271Z,0.4
2023-04-21T12:11:06.953Z,0.3
2023-04-21T12:12:14.640Z,0.5
2023-04-21T12:13:24.332Z,0.4
2023-04-21T12:14:31.985Z,0.3
2023-04-21T12:15:40.716Z,0.2
2023-04-21T12:16:50.399Z,0.3
2023-04-21T12:17:58.246Z,0.2
2023-04-21T12:19:07.710Z,0.1
2023-04-21T12:20:16.401Z,0.3
2023-04-21T12:21:24.066Z,0.2
2023-04-21T12:22:33.747Z,0.4
2023-04-21T12:23:41.413Z,0.2
2023-04-21T12:24:50.147Z,0.1
2023-04-21T12:25:59.840Z,0.1
2023-04-21T12:27:08.594Z,0.3
2023-04-21T12:28:18.226Z,0.2
2023-04-21T12:29:26.896Z,0.4
2023-04-21T12:30:38.720Z,0.5
2023-04-21T12:31:47.342Z,0.3
2023-04-21T12:32:56.114Z,0.3
2023-04-21T12:34:04.770Z,0.6
2023-04-21T12:35:14.477Z,0.3
2023-04-21T12:36:22.118Z,0.3
2023-04-21T12:37:31.797Z,0.4
2023-04-21T12:38:41.450Z,0.7
2023-04-21T12:39:49.158Z,0.5
2023-04-21T12:40:58.838Z,0.5
2023-04-21T12:42:07.518Z,0.2
2023-04-21T12:43:16.172Z,0.3
2023-04-21T12:44:25.841Z,0.3
2023-04-21T12:45:34.573Z,0.1
2023-04-21T12:46:44.231Z,0.2
2023-04-21T12:47:53.885Z,0.2
2023-04-21T12:49:02.575Z,0.2
2023-04-21T12:50:12.272Z,0.4
2023-04-21T12:51:19.953Z,0.2
2023-04-21T12:52:28.629Z,0.1
2023-04-21T12:53:38.263Z,0.4
2023-04-21T12:54:47.915Z,0.5
2023-04-21T12:56:04.454Z,0.6
2023-04-21T12:57:07.269Z,0.6
2023-04-21T12:58:15.944Z,0.3
2023-04-21T12:59:25.659Z,0.4
2023-04-21T13:00:33.339Z,0.4
2023-04-21T13:01:42.107Z,0.4
2023-04-21T13:02:51.792Z,0.4
2023-04-21T13:03:59.453Z,0.4
2023-04-21T13:05:09.005Z,0.6
2023-04-21T13:06:17.737Z,0.5
2023-04-21T13:07:25.418Z,0.3
2023-04-21T13:08:35.090Z,0.3
2023-04-21T13:09:43.769Z,0.6
2023-04-21T13:10:55.113Z,0.3
2023-04-21T13:12:03.252Z,0.6
2023-04-21T13:13:10.865Z,0.3
2023-04-21T13:14:20.577Z,0.6
2023-04-21T13:15:30.262Z,0.3
2023-04-21T13:16:38.009Z,0.7
2023-04-21T13:17:47.624Z,0.5
2023-04-21T13:18:55.312Z,0.4
2023-04-21T13:20:04.054Z,1
2023-04-21T13:21:13.717Z,0.3
2023-04-21T13:22:21.458Z,0.5
2023-04-21T13:23:31.063Z,0.4
2023-04-21T13:24:40.737Z,0.5
2023-04-21T13:25:48.416Z,0.3
2023-04-21T13:26:58.181Z,0.6
2023-04-21T13:28:05.857Z,0.6
2023-04-21T13:29:15.513Z,0.7
2023-04-21T13:30:25.164Z,0.9
2023-04-21T13:31:32.955Z,1.1
2023-04-21T13:32:42.625Z,1
2023-04-21T13:33:53.496Z,0.5
2023-04-21T13:34:59.898Z,0.7
2023-04-21T13:36:11.960Z,0.8
2023-04-21T13:37:18.276Z,0.6
2023-04-21T13:38:25.986Z,0.6
2023-04-21T13:39:35.654Z,0.4
2023-04-21T13:40:44.371Z,0.4
2023-04-21T13:41:54.310Z,1.1
2023-04-21T13:43:02.734Z,1
2023-04-21T13:44:10.433Z,0.5
2023-04-21T13:45:20.088Z,1
2023-04-21T13:46:28.862Z,0.4
2023-04-21T13:47:38.645Z,0.5
2023-04-21T13:48:48.171Z,0.5
2023-04-21T13:49:56.068Z,0.5
2023-04-21T13:51:05.842Z,0.8
2023-04-21T13:52:15.508Z,0.3
2023-04-21T13:53:25.229Z,0.6
2023-04-21T13:54:35.005Z,0.3
2023-04-21T13:55:44.581Z,1
2023-04-21T13:56:52.270Z,1
2023-04-21T13:58:01.948Z,1.2
2023-04-21T13:59:10.633Z,0.8
2023-04-21T14:00:18.319Z,0.7
2023-04-21T14:01:28.023Z,1.5
2023-04-21T14:02:35.914Z,0.4
2023-04-21T14:03:44.435Z,0.2
2023-04-21T14:04:54.279Z,0.2
2023-04-21T14:06:01.790Z,0.2
2023-04-21T14:07:11.451Z,0.2
2023-04-21T14:08:21.109Z,0.2
2023-04-21T14:09:29.771Z,0.4
2023-04-21T14:10:39.478Z,0.2
2023-04-21T14:11:48.135Z,0.2
2023-04-21T14:12:56.817Z,0.1
2023-04-21T14:14:09.305Z,0.3
2023-04-21T14:15:17.140Z,0.5
2023-04-21T14:16:25.839Z,0.1
2023-04-21T14:17:37.262Z,0.3
2023-04-21T14:18:44.951Z,0.2
2023-04-21T14:19:55.284Z,0.2
2023-04-21T14:21:03.365Z,0.3
2023-04-21T14:22:12.086Z,0.3
2023-04-21T14:23:21.755Z,0.2
2023-04-21T14:24:29.451Z,0.4
2023-04-21T14:25:39.127Z,0.4
2023-04-21T14:26:47.862Z,0.2
2023-04-21T14:27:55.516Z,0.1
2023-04-21T14:29:05.137Z,0.2
2023-04-21T14:30:12.822Z,0.1
2023-04-21T14:31:22.583Z,0.1
2023-04-21T14:32:34.077Z,0
2023-04-21T14:33:42.487Z,0.2
2023-04-21T14:34:52.177Z,0.1
2023-04-21T14:36:01.875Z,0.1
2023-04-21T14:37:10.577Z,0.1
2023-04-21T14:38:20.264Z,0.1
2023-04-21T14:39:28.925Z,0.1
2023-04-21T14:40:38.626Z,0.2
2023-04-21T14:41:48.369Z,0.1
2023-04-21T14:42:56.023Z,0.1
2023-04-21T14:44:05.653Z,0.1
2023-04-21T14:45:14.320Z,0.1
2023-04-21T14:46:23.101Z,0.2
2023-04-21T14:47:32.691Z,0.2
2023-04-21T14:48:40.400Z,0.2
2023-04-21T14:49:49.067Z,0.1
2023-04-21T14:50:58.824Z,0.2
2023-04-21T14:52:06.581Z,0.3
2023-04-21T14:53:15.272Z,0.1
2023-04-21T14:54:24.046Z,0.1
2023-04-21T14:55:32.660Z,0.2
2023-04-21T14:56:42.309Z,0.3
2023-04-21T14:57:50.078Z,0.1
2023-04-21T14:58:58.772Z,0.1
2023-04-21T15:00:08.459Z,0.1
2023-04-21T15:01:16.164Z,0.1
2023-04-21T15:02:25.948Z,0.1
2023-04-21T15:03:34.600Z,0.1
2023-04-21T15:04:42.184Z,0.1
2023-04-21T15:05:51.985Z,0.2
2023-04-21T15:07:01.808Z,0.3
2023-04-21T15:08:10.139Z,0.1
2023-04-21T15:09:19.842Z,0.4
2023-04-21T15:10:28.524Z,0.1
2023-04-21T15:11:38.181Z,0.2
2023-04-21T15:12:47.838Z,0.2
2023-04-21T15:13:57.508Z,0.2
2023-04-21T15:15:07.207Z,0.2
2023-04-21T15:16:15.902Z,0.2
2023-04-21T15:17:24.572Z,0.2
2023-04-21T15:18:34.193Z,0.2
2023-04-21T15:19:42.885Z,0.3
2023-04-21T15:20:52.556Z,0.1
2023-04-21T15:22:01.209Z,0
2023-04-21T15:23:09.899Z,0.2
2023-04-21T15:24:19.711Z,0.2
2023-04-21T15:25:28.309Z,0.2
2023-04-21T15:26:36.998Z,0.1
2023-04-21T15:27:46.654Z,0.1
2023-04-21T15:28:54.315Z,0.3
2023-04-21T15:30:03.984Z,0.1
2023-04-21T15:31:13.688Z,0.1
2023-04-21T15:32:22.369Z,0.1
2023-04-21T15:33:32.045Z,0.2
2023-04-21T15:34:41.696Z,0.3
2023-04-21T15:35:51.348Z,0.2
2023-04-21T15:37:01.051Z,0.2
2023-04-21T15:38:09.747Z,0.1
2023-04-21T15:39:19.431Z,0
2023-04-21T15:40:29.132Z,0.3
2023-04-21T15:41:36.842Z,0.3
2023-04-21T15:42:46.493Z,0.2
2023-04-21T15:43:55.158Z,0.1
2023-04-21T15:45:03.803Z,0.2
2023-04-21T15:46:13.570Z,0.1
2023-04-21T15:47:23.196Z,0.1
2023-04-21T15:48:32.933Z,0.3
2023-04-21T15:49:41.533Z,0.3
2023-04-21T15:50:49.238Z,0.2
2023-04-21T15:51:58.945Z,0.2
2023-04-21T15:53:08.632Z,0.2
2023-04-21T15:54:16.314Z,0.3
2023-04-21T15:55:26.029Z,0.2
2023-04-21T15:56:35.699Z,0.1
2023-04-21T15:57:45.382Z,0.3